WBK weather

West Branch Community Airport
West Branch, Michigan, United States

Public forecast

Using degrees Fahrenheit for public forecast. Weather courtesy of forecast.io.

METAR (pilot weather report)

Closest report is Roscommon County - Blodgett Memorial Airport, 22.2 nm (41.1 km) WNW. Retrieved 2019/09/22 18:29 UTC (1 hour ago):

KHTL 221829Z AUTO 20010KT 10SM BKN010 OVC017 21/19 A2982

TAF (pilot weather forecast)

Closest forecast is MBS International Airport, 43.0 nm (79.6 km) S. Retrieved 2019/09/22 18:22 UTC (1 hour ago):

TAF KMBS 221720Z 2218/2318 21015G24KT P6SM SCT022 BKN045 OVC080 FM230000 22013KT 4SM SHRA BR VCTS OVC015CB FM230800 25009KT 3SM -SHRA BR OVC007 FM231400 28014G22KT P6SM OVC015